Airport Name : Lann Bihoue

Other Name : Lorient

ICAO : LFRH

IATA : LRT

FAA :

Latitude : 47.760555

Longitude : -3.44

Country : France

Local Date and Time : 1/23/2018 8:51:00 AM

 

TAF (Terminal Aerodrome Forecast)

TAF LFRH 230500Z 2306/2406 22010KT 3000 DZ BR OVC002 TEMPO 2306/2309 0800 DZ FG VV/// BECMG 2309/2311 22015G25KT 5000 RA SCT002 OVC007 BECMG 2313/2315 3000 DZ BR OVC002 TEMPO 2315/2406 0800 DZ FG VV///

 

METAR (METeorological Aerodrome Report)

LFRH 230730Z AUTO 25011KT 7000 OVC004 12/12 Q1022 TEMPO 0800 DZ FG VV/// BECMG 22015G25KT

LFRH 230700Z AUTO 26009KT 5000 BR VV/// 12/12 Q1022 TEMPO 0800 DZ FG

LFRH 230630Z AUTO 25010KT 0700 R25/1000D R07/0800N FG VV/// 12/12 Q1022 TEMPO 0800 DZ FG

LFRH 230600Z AUTO 25011KT 0600 0550 R25/0800N R07/0700N FG VV/// 12/12 Q1022 TEMPO 0800 DZ FG

LFRH 230530Z AUTO 25011KT 0600 0550 R25/0900N R07/0700N FG VV/// 12/12 Q1022 TEMPO 0800 DZ FG

LFRH 230500Z AUTO 24011KT 0900 0700 R25/1400D R07/1000D FG VV/// 12/12 Q1022 TEMPO 22015G25KT

LFRH 230430Z AUTO 23011KT 2400 -RADZ BR OVC002 12/12 Q1022 TEMPO 22015G25KT 0800 FG VV///

LFRH 230400Z AUTO 21012KT 3000 -RADZ BR VV/// 12/12 Q1022 TEMPO 22015G25KT 0800 FG